Terminal Aerodrome Forecast
Issued by NWS

Home | Current Version | Previous Version | Text Only | Print | Product List | Glossary On
Versions: 1 2 3 4 5 6 7 8 9 10 11 12 13 14 15 16 17 18 19
000
FTUS42 KRAH 310005 AAA
TAFRWI
TAF AMD
KRWI 310005Z 3100/3124 02003KT P6SM FEW050
      TEMPO 3109/3113 3SM BR
     FM311400 02005KT P6SM FEW050 SCT250=

USA.gov is the U.S. government's official web portal to all federal, state and local government web resources and services.